createdAt,value
2018-09-11T00:00:58.620Z,16.30
2018-09-11T00:03:30.403Z,16.30
2018-09-11T00:06:00.420Z,16.30
2018-09-11T00:08:30.540Z,16.30
2018-09-11T00:11:00.700Z,16.30
2018-09-11T00:13:30.720Z,16.40
2018-09-11T00:16:06.000Z,16.40
2018-09-11T00:18:36.280Z,16.40
2018-09-11T00:21:06.340Z,16.40
2018-09-11T00:23:36.779Z,16.40
2018-09-11T00:26:07.139Z,16.30
2018-09-11T00:28:37.280Z,16.30
2018-09-11T00:31:07.600Z,16.30
2018-09-11T00:33:38.100Z,16.30
2018-09-11T00:36:16.480Z,16.20
2018-09-11T00:38:46.500Z,16.20
2018-09-11T00:41:16.620Z,16.00
2018-09-11T00:43:46.700Z,16.00
2018-09-11T00:46:16.819Z,16.10
2018-09-11T00:48:47.201Z,16.10
2018-09-11T00:51:20.140Z,16.10
2018-09-11T00:53:50.219Z,16.00
2018-09-11T00:56:20.302Z,16.10
2018-09-11T00:58:51.303Z,16.00
2018-09-11T01:01:21.375Z,16.00
2018-09-11T01:03:51.937Z,16.10
2018-09-11T01:06:21.938Z,16.00
2018-09-11T01:08:51.958Z,16.00
2018-09-11T01:11:22.049Z,16.00
2018-09-11T01:13:52.177Z,16.00
2018-09-11T01:16:22.957Z,15.90
2018-09-11T01:18:53.035Z,15.90
2018-09-11T01:21:27.036Z,15.80
2018-09-11T01:23:57.099Z,15.90
2018-09-11T01:26:27.297Z,15.90
2018-09-11T01:28:58.059Z,15.90
2018-09-11T01:31:32.756Z,15.90
2018-09-11T01:36:39.216Z,15.90
2018-09-11T01:39:12.516Z,15.80
2018-09-11T01:41:42.817Z,15.90
2018-09-11T01:44:12.916Z,15.90
2018-09-11T01:46:47.858Z,15.90
2018-09-11T01:49:17.917Z,15.90
2018-09-11T01:51:47.896Z,15.90
2018-09-11T01:54:17.957Z,15.80
2018-09-11T01:56:48.037Z,15.80
2018-09-11T01:59:18.236Z,15.80
2018-09-11T02:01:48.935Z,15.80
2018-09-11T02:04:22.880Z,15.80
2018-09-11T02:06:52.815Z,15.80
2018-09-11T02:09:22.944Z,15.70
2018-09-11T02:11:53.095Z,15.60
2018-09-11T02:14:23.115Z,15.60
2018-09-11T02:19:28.455Z,15.60
2018-09-11T02:21:58.455Z,15.70
2018-09-11T02:24:28.663Z,15.70
2018-09-11T02:26:59.315Z,15.70
2018-09-11T02:29:29.375Z,15.60
2018-09-11T02:32:03.521Z,15.60
2018-09-11T02:34:33.655Z,15.60
2018-09-11T02:37:05.939Z,15.60
2018-09-11T02:39:36.155Z,15.60
2018-09-11T02:42:06.416Z,15.60
2018-09-11T02:44:36.577Z,15.70
2018-09-11T02:47:11.640Z,15.70
2018-09-11T02:49:47.999Z,15.70
2018-09-11T02:52:18.055Z,15.70
2018-09-11T02:54:48.577Z,15.80
2018-09-11T02:57:18.855Z,15.80
2018-09-11T02:59:48.935Z,15.80
2018-09-11T03:02:19.025Z,15.80
2018-09-11T03:04:49.117Z,15.80
2018-09-11T03:07:19.177Z,15.80
2018-09-11T03:09:49.597Z,15.70
2018-09-11T03:12:20.001Z,15.70
2018-09-11T03:14:50.717Z,15.70
2018-09-11T03:17:20.796Z,15.70
2018-09-11T03:19:51.077Z,15.60
2018-09-11T03:22:21.256Z,15.60
2018-09-11T03:24:51.356Z,15.60
2018-09-11T03:27:21.356Z,15.60
2018-09-11T03:29:51.696Z,15.60
2018-09-11T03:32:22.217Z,15.60
2018-09-11T03:34:52.976Z,15.70
2018-09-11T03:37:23.616Z,15.70
2018-09-11T03:39:53.819Z,15.60
2018-09-11T03:42:24.138Z,15.60
2018-09-11T03:44:55.477Z,15.70
2018-09-11T03:47:25.559Z,15.60
2018-09-11T03:49:55.697Z,15.60
2018-09-11T03:52:28.562Z,15.60
2018-09-11T03:54:58.657Z,15.60
2018-09-11T03:57:28.876Z,15.60
2018-09-11T04:00:07.358Z,15.50
2018-09-11T04:02:37.575Z,15.50
2018-09-11T04:05:07.715Z,15.60
2018-09-11T04:07:37.736Z,15.60
2018-09-11T04:10:07.856Z,15.60
2018-09-11T04:12:38.036Z,15.60
2018-09-11T04:15:08.316Z,15.70
2018-09-11T04:17:42.377Z,15.70
2018-09-11T04:20:13.056Z,15.70
2018-09-11T04:22:43.396Z,15.70
2018-09-11T04:25:13.514Z,15.70
2018-09-11T04:27:43.856Z,15.70
2018-09-11T04:30:14.435Z,15.70
2018-09-11T04:32:45.375Z,15.80
2018-09-11T04:35:15.275Z,15.70
2018-09-11T04:37:45.300Z,15.70
2018-09-11T04:40:15.535Z,15.70
2018-09-11T04:42:45.915Z,15.70
2018-09-11T04:45:15.998Z,15.80
2018-09-11T04:47:46.055Z,15.80
2018-09-11T04:50:16.015Z,15.80
2018-09-11T04:52:50.815Z,15.70
2018-09-11T04:55:20.815Z,15.70
2018-09-11T04:57:50.855Z,15.70
2018-09-11T05:00:20.473Z,15.70
2018-09-11T05:02:50.759Z,15.70
2018-09-11T05:05:21.137Z,15.70
2018-09-11T05:07:51.217Z,15.80
2018-09-11T05:10:21.637Z,15.80
2018-09-11T05:12:51.657Z,15.80
2018-09-11T05:15:21.757Z,15.90
2018-09-11T05:17:52.457Z,15.90
2018-09-11T05:20:22.498Z,15.90
2018-09-11T05:22:53.417Z,15.90
2018-09-11T05:25:23.397Z,15.90
2018-09-11T05:27:53.437Z,15.90
2018-09-11T05:30:23.417Z,15.90
2018-09-11T05:32:53.616Z,15.90
2018-09-11T05:35:23.696Z,15.90
2018-09-11T05:37:54.176Z,15.90
2018-09-11T05:40:28.958Z,15.90
2018-09-11T05:43:00.120Z,15.90
2018-09-11T05:45:30.384Z,15.90
2018-09-11T05:48:00.977Z,15.90
2018-09-11T05:50:31.498Z,15.90
2018-09-11T05:53:01.779Z,15.90
2018-09-11T05:55:32.403Z,15.80
2018-09-11T05:58:03.556Z,15.90
2018-09-11T06:00:33.734Z,15.90
2018-09-11T06:03:03.854Z,16.10
2018-09-11T06:05:34.002Z,16.30
2018-09-11T06:08:05.194Z,16.50
2018-09-11T06:10:35.234Z,16.80
2018-09-11T06:13:09.974Z,17.00
2018-09-11T06:15:40.333Z,17.40
2018-09-11T06:18:10.693Z,17.80
2018-09-11T06:23:15.354Z,18.40
2018-09-11T06:25:45.443Z,18.80
2018-09-11T06:28:15.813Z,19.30
2018-09-11T06:30:45.854Z,19.70
2018-09-11T06:33:16.980Z,20.00
2018-09-11T06:35:51.313Z,20.20
2018-09-11T06:38:21.835Z,20.10
2018-09-11T06:40:51.926Z,20.10
2018-09-11T06:43:22.081Z,19.90
2018-09-11T06:45:53.295Z,19.80
2018-09-11T06:48:27.134Z,19.80
2018-09-11T06:50:57.474Z,20.00
2018-09-11T06:53:27.453Z,20.10
2018-09-11T06:55:57.777Z,20.20
2018-09-11T06:58:27.993Z,20.30
2018-09-11T07:00:57.936Z,20.20
2018-09-11T07:03:31.913Z,20.20
2018-09-11T07:06:02.674Z,20.20
2018-09-11T07:08:33.423Z,20.20
2018-09-11T07:11:04.196Z,20.20
2018-09-11T07:13:34.153Z,20.40
2018-09-11T07:16:04.674Z,20.60
2018-09-11T07:18:34.693Z,20.90
2018-09-11T07:21:04.801Z,21.10
2018-09-11T07:23:35.180Z,21.20
2018-09-11T07:26:05.653Z,21.40
2018-09-11T07:28:35.658Z,21.70
2018-09-11T07:31:05.417Z,21.80
2018-09-11T07:33:35.378Z,21.70
2018-09-11T07:36:05.540Z,21.60
2018-09-11T07:38:35.064Z,21.30
2018-09-11T07:41:04.544Z,21.20
2018-09-11T07:43:35.476Z,21.10
2018-09-11T07:46:07.500Z,21.00
2018-09-11T07:48:37.898Z,21.10
2018-09-11T07:51:07.997Z,21.00
2018-09-11T07:53:37.974Z,21.00
2018-09-11T07:56:08.216Z,21.10
2018-09-11T07:58:38.234Z,21.40
2018-09-11T08:01:08.638Z,21.60
2018-09-11T08:03:38.714Z,21.80
2018-09-11T08:06:08.618Z,21.70
2018-09-11T08:08:38.574Z,21.70
2018-09-11T08:11:08.414Z,21.70
2018-09-11T08:13:38.735Z,21.60
2018-09-11T08:16:08.654Z,21.50
2018-09-11T08:18:38.714Z,21.60
2018-09-11T08:21:09.174Z,21.70
2018-09-11T08:23:39.334Z,21.80
2018-09-11T08:26:09.673Z,21.80
2018-09-11T08:28:40.174Z,21.90
2018-09-11T08:31:10.636Z,21.90
2018-09-11T08:33:40.575Z,22.10
2018-09-11T08:36:10.394Z,22.20
2018-09-11T08:38:40.395Z,22.40
2018-09-11T08:41:10.341Z,22.50
2018-09-11T08:43:40.975Z,22.60
2018-09-11T08:46:11.494Z,22.70
2018-09-11T08:48:41.851Z,22.80
2018-09-11T08:51:12.394Z,23.10
2018-09-11T08:53:43.203Z,23.30
2018-09-11T08:56:13.514Z,23.30
2018-09-11T08:58:43.443Z,23.30
2018-09-11T09:01:13.355Z,23.10
2018-09-11T09:03:43.355Z,23.20
2018-09-11T09:06:13.274Z,23.30
2018-09-11T09:08:43.285Z,23.30
2018-09-11T09:11:13.694Z,23.50
2018-09-11T09:13:43.775Z,23.60
2018-09-11T09:16:13.668Z,23.80
2018-09-11T09:18:44.034Z,23.90
2018-09-11T09:21:13.995Z,24.10
2018-09-11T09:23:43.774Z,24.10
2018-09-11T09:26:13.915Z,24.30
2018-09-11T09:28:44.076Z,24.50
2018-09-11T09:31:14.454Z,24.90
2018-09-11T09:33:44.715Z,25.00
2018-09-11T09:36:14.814Z,24.90
2018-09-11T09:38:44.895Z,25.00
2018-09-11T09:41:15.134Z,25.10
2018-09-11T09:43:45.123Z,25.00
2018-09-11T09:46:15.196Z,25.00
2018-09-11T09:48:45.154Z,25.00
2018-09-11T09:51:15.017Z,25.10
2018-09-11T09:53:45.154Z,25.30
2018-09-11T09:56:16.235Z,25.60
2018-09-11T09:58:46.555Z,25.70
2018-09-11T10:01:21.199Z,25.80
2018-09-11T10:03:51.139Z,25.70
2018-09-11T10:06:20.902Z,25.60
2018-09-11T10:08:50.781Z,25.50
2018-09-11T10:11:20.559Z,25.40
2018-09-11T10:13:51.681Z,25.40
2018-09-11T10:16:22.239Z,25.50
2018-09-11T10:18:52.323Z,25.60
2018-09-11T10:21:22.638Z,25.60
2018-09-11T10:23:52.778Z,25.60
2018-09-11T10:26:23.198Z,25.60
2018-09-11T10:28:53.158Z,25.60
2018-09-11T10:31:23.061Z,25.60
2018-09-11T10:33:53.255Z,25.60
2018-09-11T10:36:23.199Z,25.60
2018-09-11T10:38:53.097Z,25.60
2018-09-11T10:41:23.337Z,25.80
2018-09-11T10:43:54.642Z,25.90
2018-09-11T10:46:24.797Z,26.00
2018-09-11T10:48:54.941Z,26.10
2018-09-11T10:51:24.718Z,26.30
2018-09-11T10:53:54.942Z,26.30
2018-09-11T10:56:24.838Z,26.30
2018-09-11T10:58:54.738Z,26.30
2018-09-11T11:01:28.997Z,26.30
2018-09-11T11:03:59.117Z,26.20
2018-09-11T11:06:29.237Z,26.30
2018-09-11T11:08:58.996Z,26.30
2018-09-11T11:11:28.997Z,26.30
2018-09-11T11:13:59.176Z,26.30
2018-09-11T11:16:28.957Z,26.30
2018-09-11T11:18:58.796Z,26.30
2018-09-11T11:21:28.979Z,26.40
2018-09-11T11:23:58.880Z,26.40
2018-09-11T11:26:28.638Z,26.50
2018-09-11T11:28:58.659Z,26.50
2018-09-11T11:31:29.398Z,26.50
2018-09-11T11:33:59.518Z,26.50
2018-09-11T11:36:29.387Z,26.70
2018-09-11T11:38:59.918Z,26.70
2018-09-11T11:41:30.079Z,26.70
2018-09-11T11:43:59.962Z,26.80
2018-09-11T11:46:31.138Z,26.90
2018-09-11T11:49:00.998Z,26.90
2018-09-11T11:51:31.025Z,27.00
2018-09-11T11:54:01.073Z,27.00
2018-09-11T11:56:31.377Z,27.10
2018-09-11T11:59:01.259Z,27.20
2018-09-11T12:01:31.247Z,27.10
2018-09-11T12:04:01.136Z,27.10
2018-09-11T12:06:31.862Z,27.00
2018-09-11T12:09:01.638Z,26.90
2018-09-11T12:11:32.957Z,27.00
2018-09-11T12:14:03.041Z,27.10
2018-09-11T12:16:32.839Z,27.10
2018-09-11T12:19:02.818Z,27.20
2018-09-11T12:21:33.357Z,26.90
2018-09-11T12:24:03.459Z,26.80
2018-09-11T12:26:34.019Z,26.80
2018-09-11T12:29:04.824Z,26.90
2018-09-11T12:31:35.518Z,26.80
2018-09-11T12:34:05.518Z,26.80
2018-09-11T12:36:35.618Z,27.00
2018-09-11T12:39:07.639Z,26.90
2018-09-11T12:41:38.057Z,26.60
2018-09-11T12:44:07.958Z,26.60
2018-09-11T12:46:38.109Z,26.70
2018-09-11T12:49:07.977Z,26.90
2018-09-11T12:51:38.097Z,26.90
2018-09-11T12:54:08.021Z,27.00
2018-09-11T12:56:37.939Z,26.90
2018-09-11T12:59:07.961Z,27.00
2018-09-11T13:01:37.878Z,26.90
2018-09-11T13:04:08.396Z,26.80
2018-09-11T13:06:38.637Z,26.70
2018-09-11T13:09:09.006Z,26.80
2018-09-11T13:11:40.338Z,26.70
2018-09-11T13:14:10.397Z,26.60
2018-09-11T13:16:40.295Z,26.60
2018-09-11T13:19:09.936Z,26.60
2018-09-11T13:21:39.757Z,26.70
2018-09-11T13:24:13.296Z,26.90
2018-09-11T13:26:47.556Z,27.00
2018-09-11T13:29:17.536Z,27.00
2018-09-11T13:31:51.755Z,27.00
2018-09-11T13:34:21.896Z,27.00
2018-09-11T13:36:52.015Z,27.00
2018-09-11T13:39:22.675Z,27.00
2018-09-11T13:41:53.434Z,27.10
2018-09-11T13:44:23.374Z,27.20
2018-09-11T13:46:53.463Z,27.30
2018-09-11T13:49:23.954Z,27.20
2018-09-11T13:51:53.794Z,27.10
2018-09-11T13:54:23.756Z,27.20
2018-09-11T13:56:54.641Z,27.20
2018-09-11T13:59:24.639Z,27.10
2018-09-11T14:01:55.314Z,27.20
2018-09-11T14:04:26.059Z,27.20
2018-09-11T14:06:56.076Z,27.10
2018-09-11T14:09:26.534Z,27.10
2018-09-11T14:11:56.958Z,27.20
2018-09-11T14:14:27.020Z,27.30
2018-09-11T14:16:57.028Z,27.30
2018-09-11T14:19:27.022Z,27.30
2018-09-11T14:22:01.198Z,27.20
2018-09-11T14:24:31.798Z,27.10
2018-09-11T14:27:01.778Z,27.00
2018-09-11T14:29:33.377Z,26.90
2018-09-11T14:32:03.638Z,27.00
2018-09-11T14:34:33.792Z,27.00
2018-09-11T14:37:04.796Z,27.10
2018-09-11T14:39:34.817Z,27.20
2018-09-11T14:42:06.096Z,27.30
2018-09-11T14:44:35.919Z,27.20
2018-09-11T14:47:07.883Z,27.20
2018-09-11T14:49:37.795Z,27.10
2018-09-11T14:52:07.835Z,27.00
2018-09-11T14:54:38.016Z,26.90
2018-09-11T14:57:08.619Z,26.80
2018-09-11T14:59:39.355Z,26.80
2018-09-11T15:02:09.798Z,26.80
2018-09-11T15:04:39.781Z,26.80
2018-09-11T15:07:09.907Z,26.80
2018-09-11T15:09:40.143Z,26.90
2018-09-11T15:12:10.524Z,27.00
2018-09-11T15:14:41.145Z,27.10
2018-09-11T15:17:11.463Z,27.20
2018-09-11T15:19:42.569Z,27.20
2018-09-11T15:22:13.679Z,27.20
2018-09-11T15:24:43.543Z,27.10
2018-09-11T15:27:14.741Z,27.00
2018-09-11T15:29:46.007Z,26.80
2018-09-11T15:32:16.016Z,26.90
2018-09-11T15:34:46.537Z,26.80
2018-09-11T15:37:16.980Z,26.70
2018-09-11T15:39:47.199Z,26.70
2018-09-11T15:42:18.806Z,26.50
2018-09-11T15:44:48.698Z,26.30
2018-09-11T15:47:18.537Z,26.30
2018-09-11T15:49:52.637Z,26.20
2018-09-11T15:52:23.548Z,26.30
2018-09-11T15:54:54.059Z,26.30
2018-09-11T15:57:23.799Z,26.30
2018-09-11T15:59:57.298Z,26.20
2018-09-11T16:02:27.184Z,26.10
2018-09-11T16:04:57.105Z,26.00
2018-09-11T16:07:27.105Z,25.90
2018-09-11T16:09:57.619Z,25.90
2018-09-11T16:12:29.582Z,25.80
2018-09-11T16:15:01.588Z,25.70
2018-09-11T16:17:35.679Z,25.70
2018-09-11T16:20:06.179Z,25.70
2018-09-11T16:22:40.001Z,25.60
2018-09-11T16:25:11.145Z,25.60
2018-09-11T16:27:41.681Z,25.50
2018-09-11T16:30:12.659Z,25.40
2018-09-11T16:32:43.659Z,25.40
2018-09-11T16:35:13.438Z,25.40
2018-09-11T16:37:45.758Z,25.30
2018-09-11T16:40:15.844Z,25.30
2018-09-11T16:42:45.917Z,25.30
2018-09-11T16:45:16.666Z,25.30
2018-09-11T16:47:46.698Z,25.10
2018-09-11T16:50:17.357Z,25.10
2018-09-11T16:52:47.219Z,25.00
2018-09-11T16:55:19.858Z,24.90
2018-09-11T16:57:49.918Z,24.90
2018-09-11T17:00:19.870Z,24.80
2018-09-11T17:02:50.277Z,24.90
2018-09-11T17:05:20.297Z,24.80
2018-09-11T17:07:50.438Z,24.70
2018-09-11T17:10:21.142Z,24.50
2018-09-11T17:12:53.279Z,24.30
2018-09-11T17:15:25.327Z,24.20
2018-09-11T17:17:56.740Z,24.10
2018-09-11T17:20:27.600Z,24.00
2018-09-11T17:22:57.900Z,23.80
2018-09-11T17:25:28.380Z,23.80
2018-09-11T17:28:01.440Z,23.70
2018-09-11T17:30:32.147Z,23.70
2018-09-11T17:33:04.780Z,23.70
2018-09-11T17:35:35.567Z,23.70
2018-09-11T17:38:21.040Z,23.60
2018-09-11T17:40:53.894Z,23.60
2018-09-11T17:43:24.656Z,23.50
2018-09-11T17:45:54.455Z,23.40
2018-09-11T17:48:24.496Z,23.40
2018-09-11T17:50:54.276Z,23.30
2018-09-11T17:53:35.315Z,23.20
2018-09-11T17:56:10.298Z,23.20
2018-09-11T17:58:40.735Z,23.10
2018-09-11T18:01:11.222Z,23.10
2018-09-11T18:03:41.605Z,23.00
2018-09-11T18:06:13.643Z,22.90
2018-09-11T18:08:45.322Z,22.80
2018-09-11T18:11:17.637Z,22.80
2018-09-11T18:13:48.082Z,22.80
2018-09-11T18:16:18.041Z,22.70
2018-09-11T18:18:48.501Z,22.60
2018-09-11T18:21:19.822Z,22.60
2018-09-11T18:23:49.892Z,22.60
2018-09-11T18:26:19.985Z,22.60
2018-09-11T18:28:53.542Z,22.50
2018-09-11T18:31:38.723Z,22.40
2018-09-11T18:34:13.503Z,22.30
2018-09-11T18:36:44.055Z,22.10
2018-09-11T18:39:15.683Z,21.90
2018-09-11T18:41:46.484Z,21.70
2018-09-11T18:44:20.663Z,21.70
2018-09-11T18:46:56.502Z,21.70
2018-09-11T18:49:29.098Z,21.60
2018-09-11T18:51:59.276Z,21.60
2018-09-11T18:54:29.295Z,21.60
2018-09-11T18:56:59.655Z,21.50
2018-09-11T18:59:30.095Z,21.50
2018-09-11T19:02:00.021Z,21.40
2018-09-11T19:07:46.620Z,21.40
2018-09-11T19:10:21.220Z,21.50
2018-09-11T19:12:52.103Z,21.40
2018-09-11T19:15:28.920Z,21.30
2018-09-11T19:17:59.418Z,21.20
2018-09-11T19:20:32.980Z,21.10
2018-09-11T19:23:04.645Z,21.00
2018-09-11T19:25:38.420Z,21.00
2018-09-11T19:28:23.819Z,21.00
2018-09-11T19:30:54.608Z,21.00
2018-09-11T19:33:39.000Z,20.90
2018-09-11T19:36:09.201Z,21.00
2018-09-11T19:41:59.284Z,20.90
2018-09-11T19:44:31.543Z,20.90
2018-09-11T19:47:03.182Z,20.90
2018-09-11T19:49:34.539Z,20.80
2018-09-11T19:52:10.660Z,20.60
2018-09-11T19:54:46.559Z,20.50
2018-09-11T19:57:16.898Z,20.50
2018-09-11T19:59:48.778Z,20.50
2018-09-11T20:05:37.018Z,20.50
2018-09-11T20:08:11.437Z,20.50
2018-09-11T20:10:47.919Z,20.40
2018-09-11T20:13:18.499Z,20.40
2018-09-11T20:15:49.540Z,20.40
2018-09-11T20:18:19.998Z,20.30
2018-09-11T20:20:51.938Z,20.20
2018-09-11T20:23:22.599Z,20.00
2018-09-11T20:25:57.619Z,19.80
2018-09-11T20:28:29.519Z,19.70
2018-09-11T20:31:13.919Z,19.60
2018-09-11T20:33:43.460Z,19.60
2018-09-11T20:36:13.259Z,19.60
2018-09-11T20:38:44.079Z,19.70
2018-09-11T20:41:14.440Z,19.70
2018-09-11T20:43:52.475Z,19.70
2018-09-11T20:46:26.079Z,19.70
2018-09-11T20:49:01.218Z,19.70
2018-09-11T20:51:31.523Z,19.80
2018-09-11T20:54:04.178Z,19.80
2018-09-11T20:56:33.999Z,19.80
2018-09-11T20:59:04.920Z,19.70
2018-09-11T21:01:37.483Z,19.60
2018-09-11T21:06:44.759Z,19.50
2018-09-11T21:09:15.816Z,19.40
2018-09-11T21:11:45.954Z,19.40
2018-09-11T21:14:18.055Z,19.10
2018-09-11T21:16:47.775Z,18.70
2018-09-11T21:19:18.256Z,18.50
2018-09-11T21:21:58.935Z,18.40
2018-09-11T21:24:45.895Z,18.40
2018-09-11T21:27:17.695Z,18.50
2018-09-11T21:29:47.277Z,18.60
2018-09-11T21:32:23.476Z,18.80
2018-09-11T21:34:53.675Z,19.00
2018-09-11T21:37:26.635Z,19.00
2018-09-11T21:39:57.075Z,19.00
2018-09-11T21:42:27.461Z,19.00
2018-09-11T21:44:57.355Z,19.00
2018-09-11T21:47:27.054Z,19.00
2018-09-11T21:49:57.394Z,18.90
2018-09-11T21:52:27.154Z,18.80
2018-09-11T21:54:57.175Z,18.70
2018-09-11T21:57:26.857Z,18.70
2018-09-11T21:59:57.869Z,18.60
2018-09-11T22:02:27.726Z,18.60
2018-09-11T22:04:57.685Z,18.60
2018-09-11T22:07:27.435Z,18.50
2018-09-11T22:09:57.041Z,18.50
2018-09-11T22:12:27.045Z,18.50
2018-09-11T22:14:57.146Z,18.60
2018-09-11T22:17:30.716Z,18.50
2018-09-11T22:20:00.366Z,18.40
2018-09-11T22:22:32.106Z,18.40
2018-09-11T22:25:03.184Z,18.40
2018-09-11T22:27:37.205Z,18.30
2018-09-11T22:30:07.925Z,18.30
2018-09-11T22:32:37.384Z,18.20
2018-09-11T22:35:07.205Z,18.20
2018-09-11T22:37:36.967Z,18.20
2018-09-11T22:40:07.085Z,18.20
2018-09-11T22:42:36.671Z,18.10
2018-09-11T22:45:06.143Z,18.10
2018-09-11T22:47:35.624Z,18.10
2018-09-11T22:50:05.865Z,18.00
2018-09-11T22:55:15.345Z,17.90
2018-09-11T22:57:46.385Z,17.80
2018-09-11T23:00:16.360Z,17.80
2018-09-11T23:02:46.159Z,17.80
2018-09-11T23:05:17.148Z,17.70
2018-09-11T23:07:46.700Z,17.70
2018-09-11T23:10:17.736Z,17.60
2018-09-11T23:12:47.358Z,17.40
2018-09-11T23:15:17.156Z,17.30
2018-09-11T23:17:47.979Z,17.20
2018-09-11T23:20:17.876Z,17.10
2018-09-11T23:22:47.756Z,17.10
2018-09-11T23:25:21.758Z,17.10
2018-09-11T23:27:51.477Z,17.10
2018-09-11T23:30:34.475Z,17.20
2018-09-11T23:33:04.056Z,17.10
2018-09-11T23:35:40.336Z,17.10
2018-09-11T23:38:15.716Z,17.00
2018-09-11T23:40:45.556Z,17.00
2018-09-11T23:43:14.815Z,16.90
2018-09-11T23:45:45.259Z,17.00
2018-09-11T23:48:14.935Z,17.00
2018-09-11T23:50:44.613Z,17.10
2018-09-11T23:53:16.034Z,17.10
2018-09-11T23:55:49.771Z,17.20
2018-09-11T23:58:25.554Z,17.20
